Time;durP1;ratioP1;P1;durP2;ratioP2;P2;SDS_P1;SDS_P2;PMS_P1;PMS_P2;Temp;Humidity;BMP_temperature;BMP_pressure;BME280_temperature;BME280_humidity;BME280_pressure;Samples;Min_cycle;Max_cycle;Signal;HPM_P1;HPM_P2
2020/12/13 06:58:47;;;;;;;27.25;16.65;;;;;;;9.83;100.00;100485.09;1815136;79;22653;-81
2020/12/13 07:01:21;;;;;;;25.55;16.17;;;;;;;9.80;100.00;100485.30;1788401;80;20931;-81
2020/12/13 07:03:50;;;;;;;23.12;14.50;;;;;;;9.83;100.00;100485.94;1788540;80;21193;-81
2020/12/13 07:06:23;;;;;;;19.95;13.65;;;;;;;9.88;100.00;100481.77;1788260;80;21026;-81
2020/12/13 07:08:54;;;;;;;23.45;14.25;;;;;;;9.90;100.00;100484.61;1788134;79;21698;-81
2020/12/13 07:11:23;;;;;;;24.50;13.48;;;;;;;9.92;100.00;100487.92;1788468;80;21608;-82
2020/12/13 07:14:05;;;;;;;18.95;13.83;;;;;;;9.95;100.00;100489.50;1788455;80;21069;-81
2020/12/13 07:19:05;;;;;;;18.50;12.23;;;;;;;10.00;100.00;100491.31;1788435;80;21458;-81
2020/12/13 07:21:34;;;;;;;16.30;11.45;;;;;;;10.02;100.00;100501.94;1788340;80;20943;-82
2020/12/13 07:24:02;;;;;;;19.12;13.08;;;;;;;10.05;100.00;100501.73;1788450;80;21556;-81
2020/12/13 07:26:32;;;;;;;19.75;12.85;;;;;;;10.10;100.00;100507.46;1788331;80;21626;-82
2020/12/13 07:29:01;;;;;;;18.40;12.90;;;;;;;10.17;100.00;100509.22;1788473;80;21252;-83
2020/12/13 07:31:35;;;;;;;21.97;14.50;;;;;;;10.22;100.00;100508.43;1788226;80;21587;-84
2020/12/13 07:34:06;;;;;;;20.17;13.25;;;;;;;10.29;100.00;100510.15;1788491;80;21002;-81
2020/12/13 07:36:34;;;;;;;18.48;13.75;;;;;;;10.34;100.00;100515.88;1788332;80;21085;-81
2020/12/13 07:39:04;;;;;;;23.57;14.18;;;;;;;10.38;100.00;100523.33;1788485;80;20935;-82
2020/12/13 07:41:33;;;;;;;21.45;13.53;;;;;;;10.43;100.00;100532.91;1788523;80;21380;-82
2020/12/13 07:44:12;;;;;;;21.87;13.35;;;;;;;10.45;100.00;100535.42;1788503;80;21034;-82
2020/12/13 07:46:41;;;;;;;19.35;14.78;;;;;;;10.44;100.00;100536.34;1788449;80;21002;-83
2020/12/13 07:49:19;;;;;;;22.20;15.83;;;;;;;10.44;100.00;100542.37;1788429;80;21025;-82
2020/12/13 07:51:49;;;;;;;24.37;15.95;;;;;;;10.45;100.00;100538.02;1788434;80;21504;-82
2020/12/13 07:54:29;;;;;;;24.20;15.98;;;;;;;10.43;100.00;100542.00;1788452;80;21375;-83
2020/12/13 07:57:02;;;;;;;19.48;12.93;;;;;;;10.47;100.00;100551.23;1787310;80;21200;-82
2020/12/13 07:59:30;;;;;;;18.92;12.45;;;;;;;10.55;100.00;100554.63;1782410;80;21144;-82
2020/12/13 08:01:58;;;;;;;21.48;13.38;;;;;;;10.60;100.00;100554.67;1783367;80;20887;-82
2020/12/13 08:04:44;;;;;;;16.00;11.93;;;;;;;10.67;100.00;100555.09;1783199;80;21057;-82
2020/12/13 08:07:12;;;;;;;20.62;12.40;;;;;;;10.73;100.00;100549.48;1783538;80;22111;-82
2020/12/13 08:09:43;;;;;;;18.00;12.33;;;;;;;10.79;100.00;100560.73;1782681;80;21045;-82
2020/12/13 08:12:13;;;;;;;16.20;12.23;;;;;;;10.83;100.00;100563.95;1782901;80;21600;-80
2020/12/13 08:14:41;;;;;;;18.07;12.25;;;;;;;10.83;100.00;100557.00;1782831;80;21065;-81
2020/12/13 08:17:09;;;;;;;16.25;11.43;;;;;;;10.79;100.00;100553.41;1782514;80;21093;-81
2020/12/13 08:19:46;;;;;;;15.90;12.03;;;;;;;10.78;100.00;100560.86;1782666;80;21184;-82
2020/12/13 08:22:28;;;;;;;15.80;11.93;;;;;;;10.78;100.00;100566.88;1782867;80;21108;-82
2020/12/13 08:25:02;;;;;;;16.80;12.43;;;;;;;10.81;100.00;100559.34;1782775;80;21077;-81
2020/12/13 08:27:36;;;;;;;14.78;11.43;;;;;;;10.82;100.00;100564.42;1782698;80;21025;-81
2020/12/13 08:30:05;;;;;;;19.48;12.20;;;;;;;10.81;100.00;100571.03;1782961;80;21049;-81
2020/12/13 08:32:36;;;;;;;19.05;14.00;;;;;;;10.82;100.00;100565.72;1782647;80;21205;-81
2020/12/13 08:35:15;;;;;;;22.58;14.25;;;;;;;10.86;100.00;100569.77;1782809;80;21018;-81
2020/12/13 08:37:55;;;;;;;17.82;12.82;;;;;;;10.90;100.00;100572.99;1782699;80;21212;-81
2020/12/13 08:40:40;;;;;;;19.48;14.05;;;;;;;10.92;100.00;100573.70;1782825;80;21113;-80
2020/12/13 08:43:10;;;;;;;19.25;13.45;;;;;;;10.92;100.00;100573.70;1782743;80;21489;-80
2020/12/13 08:45:38;;;;;;;20.43;13.25;;;;;;;10.94;100.00;100572.69;1782729;80;21362;-80
2020/12/13 08:48:08;;;;;;;23.27;14.70;;;;;;;10.97;100.00;100572.94;1778470;80;21030;-80
2020/12/13 08:50:42;;;;;;;22.15;14.63;;;;;;;10.99;100.00;100576.25;1782813;80;21002;-80
2020/12/13 08:53:23;;;;;;;24.63;14.75;;;;;;;11.00;100.00;100569.66;1782740;80;21196;-80
2020/12/13 08:56:06;;;;;;;22.30;12.55;;;;;;;11.01;100.00;100570.00;1782832;80;21050;-81
2020/12/13 08:58:57;;;;;;;19.17;12.20;;;;;;;11.03;100.00;100569.45;1776584;80;21216;-81
2020/12/13 09:01:26;;;;;;;15.28;11.15;;;;;;;11.05;100.00;100574.52;1774144;80;21034;-82
2020/12/13 09:03:54;;;;;;;17.20;11.25;;;;;;;11.07;100.00;100576.56;1773905;80;21022;-82
2020/12/13 09:06:34;;;;;;;17.10;11.10;;;;;;;11.04;100.00;100571.09;1773966;80;21133;-81
2020/12/13 09:09:13;;;;;;;16.82;11.53;;;;;;;11.03;100.00;100567.31;1774200;80;20987;-82
2020/12/13 09:11:43;;;;;;;15.25;11.65;;;;;;;11.01;100.00;100562.22;1774414;80;21242;-83
2020/12/13 09:14:11;;;;;;;19.02;12.88;;;;;;;10.98;100.00;100559.83;1774068;80;21042;-81
2020/12/13 09:16:39;;;;;;;21.23;11.53;;;;;;;10.97;100.00;100559.95;1774410;80;20931;-84
2020/12/13 09:19:11;;;;;;;18.30;12.30;;;;;;;11.01;100.00;100563.52;1774163;80;21019;-83
2020/12/13 09:21:50;;;;;;;15.65;10.72;;;;;;;11.08;100.00;100564.75;1774136;80;21073;-84
2020/12/13 09:24:21;;;;;;;15.55;10.78;;;;;;;11.13;100.00;100561.39;1774332;80;22130;-83
2020/12/13 09:27:07;;;;;;;14.45;11.05;;;;;;;11.19;100.00;100566.62;1774082;80;21058;-82
2020/12/13 09:29:36;;;;;;;13.75;11.68;;;;;;;11.23;100.00;100564.14;1773906;80;20999;-82
2020/12/13 09:32:04;;;;;;;16.27;11.40;;;;;;;11.27;100.00;100564.76;1773974;80;21011;-81
2020/12/13 09:34:32;;;;;;;13.30;10.58;;;;;;;11.28;100.00;100559.47;1774167;80;21208;-81
2020/12/13 09:37:00;;;;;;;14.80;11.08;;;;;;;11.25;100.00;100551.06;1774164;80;22067;-80
2020/12/13 09:39:30;;;;;;;14.78;11.00;;;;;;;11.22;100.00;100555.17;1774094;80;21138;-80
2020/12/13 09:41:58;;;;;;;15.32;11.38;;;;;;;11.22;100.00;100557.77;1773968;80;20951;-81
2020/12/13 09:44:27;;;;;;;16.90;11.25;;;;;;;11.19;100.00;100560.13;1774496;80;20919;-81
2020/12/13 09:46:57;;;;;;;22.30;13.20;;;;;;;11.14;100.00;100553.10;1774293;80;21191;-82
2020/12/13 09:49:27;;;;;;;19.77;12.40;;;;;;;11.15;100.00;100554.77;1774973;80;21201;-82
2020/12/13 09:51:59;;;;;;;21.52;13.25;;;;;;;11.12;100.00;100557.12;1774133;80;21089;-81
2020/12/13 09:54:27;;;;;;;20.12;14.40;;;;;;;11.13;100.00;100548.87;1774056;80;20951;-81
2020/12/13 09:56:55;;;;;;;35.58;26.30;;;;;;;11.18;100.00;100544.63;1773984;80;20939;-80
2020/12/13 09:59:24;;;;;;;43.25;31.17;;;;;;;11.24;100.00;100542.89;1779019;80;21109;-80
2020/12/13 10:01:53;;;;;;;56.15;41.55;;;;;;;11.23;100.00;100543.86;1779815;80;21198;-80
2020/12/13 10:04:22;;;;;;;70.20;50.58;;;;;;;11.26;100.00;100543.64;1779894;80;21006;-81
2020/12/13 10:09:37;;;;;;;56.53;40.45;;;;;;;11.24;100.00;100537.23;1779848;80;21226;-80
2020/12/13 10:12:05;;;;;;;75.75;55.05;;;;;;;11.20;100.00;100533.69;1780076;80;21041;-80
2020/12/13 10:14:33;;;;;;;93.90;70.00;;;;;;;11.18;100.00;100529.05;1780136;80;22103;-80
2020/12/13 10:17:02;;;;;;;66.37;52.90;;;;;;;11.19;100.00;100521.63;1779821;80;21794;-80
2020/12/13 10:19:30;;;;;;;49.83;37.67;;;;;;;11.20;100.00;100524.59;1779807;80;21313;-80
2020/12/13 10:21:57;;;;;;;58.08;43.00;;;;;;;11.22;100.00;100527.91;1780003;80;20927;-81
2020/12/13 10:24:27;;;;;;;34.70;24.70;;;;;;;11.27;100.00;100529.23;1780069;80;21065;-81
2020/12/13 10:26:55;;;;;;;30.80;22.20;;;;;;;11.29;100.00;100538.23;1779921;80;22084;-81
2020/12/13 10:29:23;;;;;;;30.35;20.35;;;;;;;11.23;100.00;100533.47;1779611;80;21575;-80
2020/12/13 10:31:51;;;;;;;27.00;18.65;;;;;;;11.10;100.00;100536.09;1779899;80;21164;-80
2020/12/13 10:34:19;;;;;;;34.15;23.73;;;;;;;11.05;100.00;100539.47;1779994;80;21026;-80
2020/12/13 10:36:49;;;;;;;32.28;22.48;;;;;;;11.06;100.00;100535.48;1779719;80;21180;-80
2020/12/13 10:39:20;;;;;;;37.05;26.80;;;;;;;11.00;100.00;100538.50;1779898;80;21197;-80
2020/12/13 10:41:46;;;;;;;32.75;22.65;;;;;;;10.92;100.00;100538.66;1779781;80;21101;-80
2020/12/13 10:44:16;;;;;;;30.32;19.77;;;;;;;10.86;100.00;100543.81;1779860;80;21160;-81
2020/12/13 10:46:44;;;;;;;25.82;18.82;;;;;;;10.88;100.00;100539.83;1779901;80;21046;-80
2020/12/13 10:49:12;;;;;;;29.42;19.42;;;;;;;10.90;100.00;100541.84;1779806;80;21116;-84
2020/12/13 10:51:41;;;;;;;35.28;22.75;;;;;;;10.89;100.00;100542.77;1779767;80;21168;-80
2020/12/13 10:54:09;;;;;;;32.83;20.70;;;;;;;10.86;100.00;100541.22;1779873;80;21053;-81
2020/12/13 10:56:37;;;;;;;25.23;16.40;;;;;;;10.86;100.00;100542.98;1779978;80;21019;-80
2020/12/13 10:59:05;;;;;;;26.30;17.65;;;;;;;10.82;100.00;100540.22;1776356;80;21070;-80
2020/12/13 11:01:34;;;;;;;31.70;22.60;;;;;;;10.80;100.00;100531.72;1774015;80;21184;-80
2020/12/13 11:04:02;;;;;;;24.25;17.35;;;;;;;10.80;100.00;100531.26;1774131;80;21262;-80
2020/12/13 11:06:31;;;;;;;25.52;17.30;;;;;;;10.84;100.00;100537.07;1773840;80;21041;-80
2020/12/13 11:09:02;;;;;;;38.88;24.05;;;;;;;10.86;100.00;100533.89;1773934;80;21053;-77
2020/12/13 11:11:29;;;;;;;35.00;23.52;;;;;;;10.85;100.00;100535.65;1773693;80;21589;-79
2020/12/13 11:13:56;;;;;;;34.78;23.30;;;;;;;10.82;100.00;100532.44;1774105;80;21125;-80
2020/12/13 11:16:24;;;;;;;30.85;21.23;;;;;;;10.79;100.00;100533.48;1774063;80;21202;-80
2020/12/13 11:18:53;;;;;;;21.57;16.17;;;;;;;10.74;100.00;100539.94;1773956;80;21050;-78
2020/12/13 11:21:21;;;;;;;35.08;25.72;;;;;;;10.67;100.00;100533.03;1774092;80;21588;-80
2020/12/13 11:23:48;;;;;;;27.75;18.12;;;;;;;10.55;100.00;100537.30;1774210;80;21648;-79
2020/12/13 11:26:16;;;;;;;16.50;12.80;;;;;;;10.51;100.00;100529.35;1774278;80;21477;-78
2020/12/13 11:28:44;;;;;;;18.80;13.00;;;;;;;10.41;100.00;100532.20;1773956;80;21706;-82
2020/12/13 11:31:17;;;;;;;16.30;10.80;;;;;;;10.19;100.00;100541.52;1774247;80;21583;-81
2020/12/13 11:33:46;;;;;;;21.40;12.73;;;;;;;9.98;100.00;100541.14;1774101;80;21062;-81
2020/12/13 11:36:13;;;;;;;15.63;10.00;;;;;;;9.91;100.00;100541.17;1774092;80;21561;-81
2020/12/13 11:38:41;;;;;;;15.32;11.00;;;;;;;9.92;100.00;100539.76;1773965;80;21137;-77
2020/12/13 11:41:10;;;;;;;14.40;9.40;;;;;;;9.88;100.00;100546.09;1774217;80;22374;-81
2020/12/13 11:43:37;;;;;;;12.75;9.08;;;;;;;9.83;100.00;100548.59;1774242;80;21585;-77
2020/12/13 11:46:08;;;;;;;12.90;9.33;;;;;;;9.75;100.00;100550.41;1774148;80;21109;-78
2020/12/13 11:48:37;;;;;;;14.47;9.88;;;;;;;9.75;100.00;100544.39;1774099;80;21595;-84
2020/12/13 11:51:05;;;;;;;12.88;9.45;;;;;;;9.76;100.00;100546.89;1774298;80;21090;-80
2020/12/13 11:53:33;;;;;;;11.88;8.83;;;;;;;9.67;100.00;100555.72;1774249;80;21195;-81
2020/12/13 11:56:01;;;;;;;16.90;9.60;;;;;;;9.60;100.00;100553.98;1774387;80;21152;-76
2020/12/13 11:58:29;;;;;;;12.98;8.50;;;;;;;9.56;100.00;100550.75;1774030;80;21224;-79
2020/12/13 12:00:59;;;;;;;11.43;8.43;;;;;;;9.54;100.00;100552.59;1773133;80;20978;-80
2020/12/13 12:03:27;;;;;;;9.93;7.75;;;;;;;9.58;100.00;100553.23;1774193;80;21061;-79
2020/12/13 12:05:55;;;;;;;12.43;8.40;;;;;;;9.61;100.00;100552.20;1774489;80;22081;-82
2020/12/13 12:08:23;;;;;;;16.17;9.93;;;;;;;9.60;100.00;100557.87;1774209;80;21109;-79
2020/12/13 12:10:52;;;;;;;12.80;9.28;;;;;;;9.57;100.00;100561.46;1774418;80;21608;-79
2020/12/13 12:13:20;;;;;;;15.58;9.93;;;;;;;9.60;100.00;100557.87;1774263;80;21212;-78
2020/12/13 12:15:47;;;;;;;13.53;9.15;;;;;;;9.64;100.00;100564.95;1774299;80;21097;-80
2020/12/13 12:18:15;;;;;;;15.25;9.85;;;;;;;9.64;100.00;100560.61;1774363;80;22113;-78
2020/12/13 12:20:44;;;;;;;15.90;10.72;;;;;;;9.68;100.00;100562.55;1774137;80;21022;-78
2020/12/13 12:23:11;;;;;;;14.43;10.23;;;;;;;9.66;100.00;100554.88;1774191;80;21185;-79
2020/12/13 12:25:39;;;;;;;12.73;9.60;;;;;;;9.67;100.00;100554.42;1773942;80;21477;-79
2020/12/13 12:28:08;;;;;;;16.40;10.63;;;;;;;9.70;100.00;100551.64;1774272;80;21050;-79
2020/12/13 12:30:37;;;;;;;14.55;10.05;;;;;;;9.66;100.00;100556.18;1774068;80;21210;-80
2020/12/13 12:33:05;;;;;;;15.83;10.70;;;;;;;9.69;100.00;100564.22;1774162;80;20979;-81
2020/12/13 12:35:33;;;;;;;14.07;10.20;;;;;;;9.70;100.00;100567.19;1774063;80;21141;-80
2020/12/13 12:38:01;;;;;;;18.07;11.18;;;;;;;9.66;100.00;100569.59;1774112;80;21176;-81
2020/12/13 12:40:29;;;;;;;22.22;12.78;;;;;;;9.64;100.00;100573.56;1774370;80;21560;-78
2020/12/13 12:42:57;;;;;;;21.37;12.78;;;;;;;9.58;100.00;100576.55;1774290;80;21202;-81
2020/12/13 12:45:25;;;;;;;16.05;10.05;;;;;;;9.53;100.00;100582.03;1774001;80;21188;-78
2020/12/13 12:47:53;;;;;;;18.80;11.12;;;;;;;9.46;100.00;100586.39;1774114;80;20994;-81
2020/12/13 12:50:21;;;;;;;18.62;10.13;;;;;;;9.34;100.00;100586.70;1774299;80;21125;-79
2020/12/13 12:52:49;;;;;;;14.60;10.05;;;;;;;9.30;100.00;100594.74;1774239;80;21486;-81
2020/12/13 12:55:17;;;;;;;15.70;10.03;;;;;;;9.23;100.00;100592.98;1774329;80;21208;-80
2020/12/13 12:57:46;;;;;;;14.60;9.35;;;;;;;9.16;100.00;100594.77;1773913;80;20931;-82
2020/12/13 13:00:40;;;;;;;17.73;10.95;;;;;;;9.07;100.00;100594.02;1774135;80;21223;-80
2020/12/13 13:02:59;;;;;;;17.90;10.95;;;;;;;8.99;100.00;100602.26;1771239;80;20994;-81
2020/12/13 13:05:34;;;;;;;18.05;10.10;;;;;;;8.95;100.00;100593.84;1774352;80;21097;-80
2020/12/13 13:08:07;;;;;;;18.67;11.40;;;;;;;8.96;100.00;100596.81;1773888;79;21648;-80
2020/12/13 13:10:32;;;;;;;17.02;10.65;;;;;;;8.95;100.00;100599.02;1773233;80;20947;-78
2020/12/13 13:12:58;;;;;;;17.30;10.78;;;;;;;8.94;100.00;100599.09;1774027;80;20999;-79
2020/12/13 13:15:46;;;;;;;17.70;10.05;;;;;;;8.94;100.00;100606.86;1772849;80;21556;-80
2020/12/13 13:18:06;;;;;;;16.50;10.32;;;;;;;8.92;100.00;100610.02;1770853;80;21109;-80
2020/12/13 13:20:34;;;;;;;15.70;10.15;;;;;;;8.85;100.00;100616.47;1774246;80;22080;-79
2020/12/13 13:23:02;;;;;;;22.60;10.98;;;;;;;8.80;100.00;100614.63;1774246;80;21813;-78
2020/12/13 13:25:31;;;;;;;13.43;9.28;;;;;;;8.76;100.00;100613.14;1774058;80;21169;-76
2020/12/13 13:27:58;;;;;;;14.90;9.85;;;;;;;8.72;100.00;100619.41;1774363;80;21583;-80
2020/12/13 13:30:28;;;;;;;18.52;11.97;;;;;;;8.68;100.00;100625.71;1774321;80;21588;-80
2020/12/13 13:32:56;;;;;;;17.62;11.22;;;;;;;8.64;100.00;100621.62;1774172;80;21243;-80
2020/12/13 13:35:24;;;;;;;17.95;11.68;;;;;;;8.60;100.00;100626.61;1774200;80;21141;-75
2020/12/13 13:37:52;;;;;;;14.98;9.38;;;;;;;8.55;100.00;100637.23;1774222;80;20991;-82
2020/12/13 13:40:20;;;;;;;21.33;11.95;;;;;;;8.48;100.00;100623.83;1774199;80;21501;-80
2020/12/13 13:42:48;;;;;;;21.33;12.37;;;;;;;8.40;100.00;100632.92;1774042;80;21506;-78
2020/12/13 13:45:31;;;;;;;21.50;12.47;;;;;;;8.38;100.00;100636.91;1774371;80;21435;-79
2020/12/13 13:50:16;;;;;;;17.12;12.33;;;;;;;8.33;100.00;100632.44;1774137;80;21102;-80
2020/12/13 13:52:44;;;;;;;17.75;11.83;;;;;;;8.27;100.00;100637.93;1774448;80;21564;-80
2020/12/13 13:55:25;;;;;;;18.27;11.43;;;;;;;8.21;100.00;100642.16;1774252;80;21200;-82
2020/12/13 13:57:48;;;;;;;18.55;12.88;;;;;;;8.19;100.00;100639.30;1773507;80;21210;-79
2020/12/13 14:00:15;;;;;;;21.52;12.85;;;;;;;8.15;100.00;100639.08;1772891;79;21157;-78
2020/12/13 14:02:44;;;;;;;14.47;10.45;;;;;;;8.10;100.00;100637.23;1772080;81;21129;-80
2020/12/13 14:05:12;;;;;;;18.92;11.55;;;;;;;8.07;100.00;100649.88;1772053;81;21220;-79
2020/12/13 14:10:29;;;;;;;16.30;10.38;;;;;;;7.99;100.00;100650.28;1772327;81;20959;-85
2020/12/13 14:12:57;;;;;;;15.20;9.73;;;;;;;7.96;100.00;100649.17;1772134;81;20994;-83
2020/12/13 14:15:25;;;;;;;15.50;10.88;;;;;;;7.95;100.00;100654.41;1772235;81;21049;-77
2020/12/13 14:17:53;;;;;;;17.62;11.55;;;;;;;7.95;100.00;100660.86;1772114;81;21140;-82
2020/12/13 14:20:22;;;;;;;17.98;10.58;;;;;;;7.96;100.00;100658.20;1772333;81;21153;-79
2020/12/13 14:22:49;;;;;;;20.20;11.50;;;;;;;7.95;100.00;100660.41;1772243;81;21198;-80
2020/12/13 14:25:17;;;;;;;18.07;11.83;;;;;;;7.92;100.00;100661.88;1772158;81;21941;-78
2020/12/13 14:27:45;;;;;;;17.60;10.28;;;;;;;7.95;100.00;100667.33;1772259;81;21462;-81
2020/12/13 14:30:13;;;;;;;17.05;11.25;;;;;;;7.96;100.00;100665.96;1772297;81;21121;-80
2020/12/13 14:32:41;;;;;;;15.20;9.15;;;;;;;7.97;100.00;100666.80;1772180;81;21164;-82
2020/12/13 14:35:09;;;;;;;17.67;9.05;;;;;;;7.99;100.00;100670.13;1772117;81;21302;-84
2020/12/13 14:37:39;;;;;;;14.00;8.78;;;;;;;7.93;100.00;100670.46;1770920;81;21176;-81
2020/12/13 14:40:06;;;;;;;10.93;7.22;;;;;;;7.89;100.00;100679.29;1772179;81;21217;-81
2020/12/13 14:42:34;;;;;;;10.35;7.67;;;;;;;7.85;100.00;100676.03;1772270;81;21223;-82
2020/12/13 14:45:03;;;;;;;13.05;8.05;;;;;;;7.83;100.00;100675.30;1772453;81;21141;-81
2020/12/13 14:47:31;;;;;;;12.82;8.43;;;;;;;7.76;100.00;100680.41;1772191;81;21264;-84
2020/12/13 14:49:59;;;;;;;14.23;9.10;;;;;;;7.74;100.00;100677.55;1772249;81;21171;-84
2020/12/13 14:52:27;;;;;;;13.28;9.23;;;;;;;7.69;100.00;100680.84;1772256;81;21090;-84
2020/12/13 14:54:55;;;;;;;15.50;11.40;;;;;;;7.69;100.00;100681.66;1772075;81;21141;-82
2020/12/13 14:57:23;;;;;;;17.37;12.05;;;;;;;7.68;100.00;100689.05;1772113;81;21121;-83
2020/12/13 14:59:51;;;;;;;19.10;13.55;;;;;;;7.67;100.00;100694.28;1774032;80;22369;-84
2020/12/13 15:02:19;;;;;;;22.13;13.48;;;;;;;7.65;100.00;100693.55;1779742;80;20950;-83
2020/12/13 15:04:48;;;;;;;22.22;15.85;;;;;;;7.64;100.00;100695.28;1779754;80;20979;-83
2020/12/13 15:07:15;;;;;;;22.45;15.85;;;;;;;7.62;100.00;100692.41;1779922;80;20995;-84
2020/12/13 15:09:45;;;;;;;23.15;15.58;;;;;;;7.60;100.00;100700.23;1775631;80;21148;-86
2020/12/13 15:12:13;;;;;;;20.12;14.70;;;;;;;7.61;100.00;100694.16;1779924;80;21144;-83
2020/12/13 15:17:39;;;;;;;19.95;14.68;;;;;;;7.68;100.00;100707.13;1779947;80;21018;-83
2020/12/13 15:20:07;;;;;;;20.27;14.10;;;;;;;7.71;100.00;100704.83;1780033;80;21192;-81
2020/12/13 15:22:36;;;;;;;23.95;17.10;;;;;;;7.72;100.00;100704.73;1779413;80;21054;-81
2020/12/13 15:25:04;;;;;;;25.27;17.45;;;;;;;7.71;100.00;100703.09;1780049;80;21265;-86
2020/12/13 15:27:32;;;;;;;20.62;16.10;;;;;;;7.74;100.00;100705.95;1780168;80;21152;-85
2020/12/13 15:30:00;;;;;;;20.85;15.48;;;;;;;7.74;100.00;100708.55;1780182;80;20935;-83
2020/12/13 15:32:28;;;;;;;17.10;11.38;;;;;;;7.77;100.00;100714.38;1779987;80;21491;-85
2020/12/13 15:34:57;;;;;;;13.85;10.53;;;;;;;7.82;100.00;100715.41;1780236;80;21184;-83
2020/12/13 15:37:25;;;;;;;13.05;10.38;;;;;;;7.79;100.00;100712.54;1780140;80;21192;-82
2020/12/13 15:39:56;;;;;;;11.78;9.03;;;;;;;7.79;100.00;100710.41;1780027;80;21151;-84
2020/12/13 15:42:27;;;;;;;16.32;10.80;;;;;;;7.76;100.00;100707.98;1780042;80;21576;-84
2020/12/13 15:44:53;;;;;;;15.38;10.65;;;;;;;7.73;100.00;100709.45;1779791;80;21164;-84
2020/12/13 15:47:21;;;;;;;18.55;13.75;;;;;;;7.70;100.00;100712.20;1780029;80;21168;-84
2020/12/13 15:49:49;;;;;;;20.02;15.18;;;;;;;7.70;100.00;100715.62;1780149;80;22130;-84
2020/12/13 15:52:17;;;;;;;28.07;20.60;;;;;;;7.69;100.00;100715.23;1780069;80;21473;-84
2020/12/13 15:54:45;;;;;;;29.02;23.87;;;;;;;7.68;100.00;100715.33;1779816;80;21105;-83
2020/12/13 15:57:13;;;;;;;29.42;24.92;;;;;;;7.70;100.00;100719.95;1779949;80;21014;-83
2020/12/13 15:59:41;;;;;;;50.10;38.17;;;;;;;7.69;100.00;100724.75;1779378;80;21188;-83
2020/12/13 16:02:08;;;;;;;48.85;35.15;;;;;;;7.69;100.00;100722.17;1774269;80;21266;-84
2020/12/13 16:04:38;;;;;;;43.87;35.50;;;;;;;7.70;100.00;100728.98;1774339;80;21156;-82
2020/12/13 16:07:14;;;;;;;39.95;30.20;;;;;;;7.66;100.00;100728.80;1774261;80;20947;-82
2020/12/13 16:09:35;;;;;;;47.75;36.40;;;;;;;7.62;100.00;100724.24;1773170;80;21647;-85
2020/12/13 16:12:03;;;;;;;34.88;27.70;;;;;;;7.59;100.00;100733.90;1774219;80;21528;-87
2020/12/13 16:14:31;;;;;;;27.37;20.70;;;;;;;7.56;100.00;100732.77;1774173;80;21199;-84
2020/12/13 16:16:59;;;;;;;23.05;19.82;;;;;;;7.57;100.00;100730.09;1774330;80;21094;-84
2020/12/13 16:19:27;;;;;;;20.62;16.67;;;;;;;7.57;100.00;100738.29;1774015;80;21480;-82
2020/12/13 16:21:55;;;;;;;20.92;15.55;;;;;;;7.56;100.00;100732.77;1774277;80;20994;-82
2020/12/13 16:24:23;;;;;;;18.20;14.80;;;;;;;7.60;100.00;100735.09;1773867;80;21128;-82
2020/12/13 16:26:51;;;;;;;16.90;13.85;;;;;;;7.61;100.00;100733.34;1774297;80;21203;-84
2020/12/13 16:29:19;;;;;;;18.65;15.43;;;;;;;7.60;100.00;100736.84;1774038;80;20978;-84
2020/12/13 16:31:49;;;;;;;18.60;14.55;;;;;;;7.57;100.00;100733.13;1774064;80;21140;-84
2020/12/13 16:34:17;;;;;;;20.55;15.35;;;;;;;7.56;100.00;100734.06;1774286;80;21073;-84
2020/12/13 16:36:46;;;;;;;17.15;14.73;;;;;;;7.57;100.00;100735.70;1774335;80;21125;-84
2020/12/13 16:39:21;;;;;;;19.02;14.40;;;;;;;7.57;100.00;100731.83;1774117;80;21160;-83
2020/12/13 16:41:45;;;;;;;17.10;13.72;;;;;;;7.59;100.00;100736.03;1773667;80;21082;-82
2020/12/13 16:44:16;;;;;;;17.95;13.80;;;;;;;7.65;100.00;100736.16;1774278;80;21152;-81
2020/12/13 16:46:51;;;;;;;18.75;14.05;;;;;;;7.70;100.00;100736.28;1774434;80;21141;-84
2020/12/13 16:54:52;;;;;;;15.63;11.33;;;;;;;7.90;100.00;100738.64;1774495;80;21034;-83
2020/12/13 16:57:23;;;;;;;12.00;9.90;;;;;;;7.92;100.00;100733.38;1774309;80;20932;-84
2020/12/13 16:59:51;;;;;;;12.63;9.78;;;;;;;7.93;100.00;100729.44;1774237;80;21213;-84
2020/12/13 17:02:19;;;;;;;14.68;10.70;;;;;;;7.92;100.00;100732.09;1779822;80;21057;-83
2020/12/13 17:04:48;;;;;;;11.97;9.20;;;;;;;7.90;100.00;100732.19;1779823;80;21206;-83
2020/12/13 17:07:17;;;;;;;12.82;8.60;;;;;;;7.90;100.00;100732.19;1779924;80;21093;-84
2020/12/13 17:09:45;;;;;;;12.47;9.33;;;;;;;7.90;100.00;100732.19;1779903;80;20998;-84
2020/12/13 17:12:12;;;;;;;12.82;8.68;;;;;;;7.92;100.00;100724.34;1779938;80;21171;-84
2020/12/13 17:14:42;;;;;;;11.88;8.43;;;;;;;7.97;100.00;100732.23;1780040;80;21140;-83
2020/12/13 17:17:11;;;;;;;12.82;8.80;;;;;;;8.06;100.00;100736.06;1780207;80;22104;-83
2020/12/13 17:19:40;;;;;;;22.55;14.93;;;;;;;8.10;100.00;100738.03;1779894;80;21077;-82
2020/12/13 17:22:10;;;;;;;16.40;11.33;;;;;;;8.12;100.00;100739.61;1776022;80;21501;-83
2020/12/13 17:24:39;;;;;;;23.25;15.95;;;;;;;8.16;100.00;100739.83;1779961;80;22407;-83
2020/12/13 17:27:07;;;;;;;22.10;16.07;;;;;;;8.18;100.00;100739.27;1779853;80;21473;-83
2020/12/13 17:29:35;;;;;;;14.00;11.33;;;;;;;8.21;100.00;100743.42;1779801;80;21193;-84
2020/12/13 17:32:02;;;;;;;18.87;13.22;;;;;;;8.25;100.00;100748.81;1779718;80;21018;-84
2020/12/13 17:34:31;;;;;;;13.50;10.55;;;;;;;8.30;100.00;100749.41;1779753;80;21073;-85
2020/12/13 17:36:59;;;;;;;13.45;9.28;;;;;;;8.33;100.00;100751.38;1779932;80;21066;-84
2020/12/13 17:39:29;;;;;;;12.50;9.90;;;;;;;8.35;100.00;100743.09;1779692;80;21062;-84
2020/12/13 17:41:57;;;;;;;11.90;9.60;;;;;;;8.37;100.00;100745.58;1779781;80;22002;-85
2020/12/13 17:44:30;;;;;;;13.53;9.85;;;;;;;8.39;100.00;100743.27;1752340;80;20915;-84
2020/12/13 17:46:59;;;;;;;15.40;11.03;;;;;;;8.42;100.00;100752.64;1780186;80;21585;-84
2020/12/13 17:49:32;;;;;;;15.03;11.33;;;;;;;8.44;100.00;100754.22;1779816;80;20931;-84
2020/12/13 17:55:04;;;;;;;16.05;12.58;;;;;;;8.52;100.00;100752.96;1779796;80;21144;-83
2020/12/13 18:02:45;;;;;;;20.77;15.68;;;;;;;8.61;100.00;100762.33;1966911;73;23229;-81
2020/12/13 18:05:14;;;;;;;24.43;17.42;;;;;;;8.57;100.00;100760.83;1935448;74;21447;-83
2020/12/13 18:07:42;;;;;;;29.98;20.72;;;;;;;8.56;100.00;100763.48;1935565;74;21613;-84
2020/12/13 18:10:11;;;;;;;26.80;18.82;;;;;;;8.55;100.00;100762.68;1935264;73;20927;-84
2020/12/13 18:12:40;;;;;;;30.57;21.95;;;;;;;8.56;100.00;100761.73;1935481;74;21008;-84
2020/12/13 18:15:10;;;;;;;34.13;23.87;;;;;;;8.56;100.00;100764.33;1935375;74;20968;-84
2020/12/13 18:17:38;;;;;;;34.70;25.10;;;;;;;8.57;100.00;100762.13;1935421;74;21530;-84
2020/12/13 18:20:06;;;;;;;38.30;25.65;;;;;;;8.57;100.00;100759.98;1935352;74;21110;-84
2020/12/13 18:22:40;;;;;;;40.15;27.58;;;;;;;8.57;100.00;100765.16;1935414;74;21035;-85
2020/12/13 18:25:09;;;;;;;33.83;23.80;;;;;;;8.57;100.00;100768.59;1935617;74;20963;-84
2020/12/13 18:27:37;;;;;;;33.15;23.70;;;;;;;8.57;100.00;100766.00;1935290;74;21043;-84
2020/12/13 18:30:08;;;;;;;35.52;25.50;;;;;;;8.58;100.00;100767.67;1935274;74;20948;-84
2020/12/13 18:32:36;;;;;;;34.15;26.25;;;;;;;8.56;100.00;100764.33;1935816;74;21164;-85
2020/12/13 18:35:04;;;;;;;36.08;26.25;;;;;;;8.56;100.00;100769.95;1935480;74;21016;-84
2020/12/13 18:37:32;;;;;;;38.33;27.05;;;;;;;8.54;100.00;100766.63;1935185;74;20952;-84
2020/12/13 18:40:00;;;;;;;34.13;24.72;;;;;;;8.55;100.00;100767.02;1935137;74;20980;-84
2020/12/13 18:42:28;;;;;;;33.48;24.55;;;;;;;8.53;100.00;100759.33;1935300;74;20877;-83